Fall River Mills, CA (96028)

8:07 AM PDT on August 29, 2014 (GMT -0700)
Glenburn | Change Station
CLOSE
Current Station
Personal Weather Station
Location: Fall River Mills, CA
Elevation: 3347 ft
Nearby Weather Stations

Elev 3347 ft 41.08 °N, 121.54 °W | Updated 2 seconds ago

Partly Cloudy
Partly Cloudy
57.6 °F
Feels Like 57.6 °F
N
0.0
Wind Variable Wind from NNE
Gusts 0.0 mph

Today
High -- | Low -- °F
--% Chance of Precip.
Yesterday
High -- | Low -- °F
Precip. -- in
6:29 AM 7:43 PM
Waxing Crescent, 14% visible
Pressure 30.02 in
Visibility 6.0 miles
Clouds Clear
Dew Point 40 °F
Humidity 52%
Rainfall 0.00 in
Snow Depth Not available.
UV 1 out of 12
Pollen 8.80 out of 12
Air Quality Not available.
Flu Activity Not available.
METAR KMHS 291456Z AUTO 00000KT 6SM HZ CLR 15/08 A3006 RMK AO2 SLP166 T01500078 53001

More Conditions Fewer Conditions

Pressure 30.02 in
Visibility 6.0 miles
Clouds Clear
Dew Point 40 °F
Humidity 52%
Rainfall 0.00 in
Snow Depth Not available.
UV 1 out of 12
Pollen 8.80 out of 12
Air Quality Not available.
Flu Activity Not available.
METAR KMHS 291456Z AUTO 00000KT 6SM HZ CLR 15/08 A3006 RMK AO2 SLP166 T01500078 53001

More Conditions Fewer Conditions

10-Day Weather Forecast

Almanac

Astronomy

Aug. 29, 2014 Rise Set
Actual Time 6:29 AM PDT 7:43 PM PDT
Civil Twilight 6:01 AM PDT 8:11 PM PDT
Nautical Twilight 5:27 AM PDT 8:45 PM PDT
Astronomical Twilight 4:51 AM PDT 9:21 PM PDT
Moon 10:26 AM PDT 9:41 PM PDT
Length of Visible Light 14h 10m
Length of Day
13h 13m
Tomorrow will be 2m 35s shorter.
Waxing Crescent, 14% of the Moon is Illuminated
Today
Waxing Crescent
Sep 2
First Quarter
Sep 8
Full
Sep 15
Last Quarter
Sep 24
New

Today's Extremes

State Highs State Lows

Community

WunderPhotos

Upload Photos

1,748,263 photos uploaded!

Nearby

Snow Depth

Station Depth Elevation
Adin Mountain 1 in 6200 ft
Crowder Flat 0 in 5100 ft
Cedar Pass 0 in 7100 ft
Independence Creek 0 in 6500 ft
CSS Lab 2 in 6900 ft

Earthquake Activity

City Distance Mag. Time & Date
Lakeview, Oregon 111 miles 2.5 5:31 AM PDT
2014-08-29
Lakeview, Oregon 111 miles 2.6 5:07 AM PDT
2014-08-29
Lakeview, Oregon 111 miles 3.1 2:47 AM PDT
2014-08-29
Lakeview, Oregon 111 miles 3.8 1:46 AM PDT
2014-08-29
Minimum magnitude displayed is 2.5.

Coastal Water Temperatures

Place Temperature
No Stations Reporting

Nearby Weather Stations